createdAt,value
2022-11-08T00:01:29.790Z,100932.09
2022-11-08T00:03:51.692Z,100929.69
2022-11-08T00:06:31.822Z,100925.28
2022-11-08T00:09:11.906Z,100935.09
2022-11-08T00:11:52.167Z,100937.75
2022-11-08T00:14:14.040Z,100933.25
2022-11-08T00:16:35.953Z,100937.19
2022-11-08T00:18:58.327Z,100942.25
2022-11-08T00:21:20.182Z,100937.06
2022-11-08T00:23:43.943Z,100938.56
2022-11-08T00:26:06.879Z,100938.91
2022-11-08T00:28:28.936Z,100935.69
2022-11-08T00:30:50.781Z,100938.47
2022-11-08T00:33:12.636Z,100935.69
2022-11-08T00:35:34.519Z,100924.97
2022-11-08T00:37:56.424Z,100929.25
2022-11-08T00:40:18.296Z,100929.56
2022-11-08T00:42:40.249Z,100927.84
2022-11-08T00:45:02.189Z,100923.00
2022-11-08T00:47:24.015Z,100931.66
2022-11-08T00:49:46.231Z,100921.66
2022-11-08T00:52:08.465Z,100921.50
2022-11-08T00:54:30.497Z,100913.13
2022-11-08T00:56:52.365Z,100912.66
2022-11-08T00:59:17.779Z,100914.47
2022-11-08T01:01:41.772Z,100910.44
2022-11-08T01:04:03.806Z,100917.81
2022-11-08T01:06:26.373Z,100918.19
2022-11-08T01:08:49.898Z,100914.16
2022-11-08T01:11:20.394Z,100914.84
2022-11-08T01:13:42.747Z,100908.00
2022-11-08T01:16:19.223Z,100910.78
2022-11-08T01:18:41.505Z,100913.91
2022-11-08T01:21:05.015Z,100903.66
2022-11-08T01:23:26.840Z,100903.97
2022-11-08T01:25:49.929Z,100910.34
2022-11-08T01:28:13.034Z,100900.09
2022-11-08T01:30:44.468Z,100905.25
2022-11-08T01:33:06.795Z,100909.97
2022-11-08T01:35:30.773Z,100900.88
2022-11-08T01:37:52.565Z,100902.38
2022-11-08T01:40:14.437Z,100890.16
2022-11-08T01:42:36.207Z,100888.56
2022-11-08T01:45:08.871Z,100889.84
2022-11-08T01:47:31.125Z,100884.66
2022-11-08T01:50:00.403Z,100885.00
2022-11-08T01:52:39.468Z,100885.00
2022-11-08T01:55:10.185Z,100871.53
2022-11-08T01:57:46.610Z,100865.66
2022-11-08T02:00:12.784Z,100868.44
2022-11-08T02:02:37.772Z,100854.63
2022-11-08T02:05:00.833Z,100863.38
2022-11-08T02:07:24.578Z,100857.84
2022-11-08T02:09:48.287Z,100858.28
2022-11-08T02:12:11.153Z,100844.47
2022-11-08T02:14:33.279Z,100847.59
2022-11-08T02:16:55.263Z,100837.34
2022-11-08T02:19:51.106Z,100830.66
2022-11-08T02:22:26.271Z,100829.53
2022-11-08T02:24:48.366Z,100821.56
2022-11-08T02:27:12.484Z,100819.97
2022-11-08T02:29:36.317Z,100817.53
2022-11-08T02:32:00.798Z,100806.03
2022-11-08T02:34:36.841Z,100816.66
2022-11-08T02:37:01.416Z,100810.66
2022-11-08T02:39:23.725Z,100812.94
2022-11-08T02:41:45.576Z,100806.16
2022-11-08T02:44:07.469Z,100801.78
2022-11-08T02:46:29.324Z,100800.16
2022-11-08T02:48:51.328Z,100802.13
2022-11-08T02:51:13.143Z,100805.22
2022-11-08T02:53:35.172Z,100785.44
2022-11-08T02:55:57.115Z,100787.72
2022-11-08T02:58:19.316Z,100786.94
2022-11-08T03:00:41.483Z,100785.34
2022-11-08T03:03:03.974Z,100787.28
2022-11-08T03:05:28.776Z,100790.38
2022-11-08T03:07:51.362Z,100777.75
2022-11-08T03:10:14.947Z,100769.00
2022-11-08T03:12:37.919Z,100770.91
2022-11-08T03:14:59.708Z,100763.00
2022-11-08T03:17:21.589Z,100763.34
2022-11-08T03:19:43.510Z,100763.69
2022-11-08T03:22:05.429Z,100762.22
2022-11-08T03:24:27.326Z,100762.06
2022-11-08T03:26:49.063Z,100754.94
2022-11-08T03:29:10.854Z,100754.94
2022-11-08T03:31:32.638Z,100750.09
2022-11-08T03:33:54.385Z,100739.75
2022-11-08T03:36:16.234Z,100738.16
2022-11-08T03:38:38.231Z,100733.31
2022-11-08T03:41:00.085Z,100730.06
2022-11-08T03:43:21.908Z,100725.22
2022-11-08T03:45:46.384Z,100726.38
2022-11-08T03:48:08.755Z,100721.19
2022-11-08T03:50:30.698Z,100709.25
2022-11-08T03:52:56.545Z,100713.97
2022-11-08T03:55:22.945Z,100705.22
2022-11-08T03:57:48.075Z,100705.91
2022-11-08T04:00:13.094Z,100703.13
2022-11-08T04:02:35.040Z,100693.25
2022-11-08T04:04:56.921Z,100686.13
2022-11-08T04:07:18.815Z,100681.75
2022-11-08T04:09:40.644Z,100679.00
2022-11-08T04:12:20.812Z,100674.28
2022-11-08T04:15:01.300Z,100665.88
2022-11-08T04:17:43.146Z,100668.19
2022-11-08T04:20:24.326Z,100653.59
2022-11-08T04:22:46.198Z,100651.16
2022-11-08T04:25:08.463Z,100657.84
2022-11-08T04:27:30.413Z,100647.16
2022-11-08T04:29:52.229Z,100639.66
2022-11-08T04:32:14.400Z,100636.91
2022-11-08T04:34:36.298Z,100638.06
2022-11-08T04:36:58.122Z,100634.50
2022-11-08T04:39:19.894Z,100640.81
2022-11-08T04:41:41.665Z,100625.44
2022-11-08T04:44:03.546Z,100629.78
2022-11-08T04:46:28.418Z,100634.50
2022-11-08T04:48:54.017Z,100616.78
2022-11-08T04:51:26.996Z,100615.66
2022-11-08T04:53:49.800Z,100614.03
2022-11-08T04:56:15.275Z,100615.66
2022-11-08T04:58:43.667Z,100612.19
2022-11-08T05:01:08.208Z,100600.78
2022-11-08T05:03:31.064Z,100594.47
2022-11-08T05:05:52.903Z,100599.91
2022-11-08T05:08:14.808Z,100585.75
2022-11-08T05:10:36.933Z,100581.06
2022-11-08T05:12:58.805Z,100588.16
2022-11-08T05:15:21.935Z,100576.78
2022-11-08T05:17:43.669Z,100558.28
2022-11-08T05:20:25.476Z,100569.31
2022-11-08T05:23:05.751Z,100554.72
2022-11-08T05:25:27.779Z,100556.66
2022-11-08T05:27:49.589Z,100558.28
2022-11-08T05:30:11.899Z,100555.97
2022-11-08T05:32:33.804Z,100558.72
2022-11-08T05:34:55.692Z,100552.84
2022-11-08T05:37:17.601Z,100554.81
2022-11-08T05:39:39.461Z,100548.50
2022-11-08T05:42:01.343Z,100550.09
2022-11-08T05:44:23.252Z,100549.28
2022-11-08T05:46:45.093Z,100548.94
2022-11-08T05:49:07.077Z,100552.50
2022-11-08T05:51:28.854Z,100549.75
2022-11-08T05:53:50.793Z,100542.63
2022-11-08T05:56:12.826Z,100534.69
2022-11-08T05:58:36.267Z,100533.91
2022-11-08T06:01:11.287Z,100543.78
2022-11-08T06:03:33.982Z,100542.50
2022-11-08T06:05:56.771Z,100534.56
2022-11-08T06:08:18.582Z,100545.59
2022-11-08T06:10:40.448Z,100547.56
2022-11-08T06:13:02.386Z,100541.59
2022-11-08T06:15:24.182Z,100545.19
2022-11-08T06:17:45.997Z,100546.31
2022-11-08T06:20:11.844Z,100548.28
2022-11-08T06:22:36.827Z,100535.97
2022-11-08T06:24:58.830Z,100542.19
2022-11-08T06:27:20.688Z,100542.19
2022-11-08T06:29:42.963Z,100539.91
2022-11-08T06:32:04.978Z,100541.03
2022-11-08T06:34:26.791Z,100526.78
2022-11-08T06:36:48.672Z,100539.44
2022-11-08T06:39:10.527Z,100547.72
2022-11-08T06:41:33.047Z,100546.09
2022-11-08T06:43:55.060Z,100551.59
2022-11-08T06:46:17.552Z,100549.22
2022-11-08T06:48:39.416Z,100549.66
2022-11-08T06:51:02.017Z,100537.00
2022-11-08T06:53:24.021Z,100554.72
2022-11-08T06:55:45.986Z,100550.00
2022-11-08T06:58:08.211Z,100549.88
2022-11-08T07:00:30.920Z,100552.31
2022-11-08T07:02:58.193Z,100542.88
2022-11-08T07:05:20.844Z,100547.59
2022-11-08T07:07:42.767Z,100547.25
2022-11-08T07:10:06.312Z,100539.44
2022-11-08T07:12:28.280Z,100538.28
2022-11-08T07:14:50.162Z,100534.81
2022-11-08T07:17:12.037Z,100537.69
2022-11-08T07:19:34.021Z,100543.69
2022-11-08T07:21:55.993Z,100548.50
2022-11-08T07:24:18.224Z,100549.41
2022-11-08T07:26:40.489Z,100545.94
2022-11-08T07:29:02.895Z,100550.75
2022-11-08T07:31:25.382Z,100556.41
2022-11-08T07:33:47.656Z,100552.94
2022-11-08T07:36:09.898Z,100557.41
2022-11-08T07:38:32.123Z,100545.72
2022-11-08T07:41:00.008Z,100540.72
2022-11-08T07:43:21.917Z,100550.19
2022-11-08T07:45:44.363Z,100545.91
2022-11-08T07:48:15.697Z,100545.22
2022-11-08T07:50:38.763Z,100545.78
2022-11-08T07:53:04.834Z,100545.53
2022-11-08T07:55:28.712Z,100540.91
2022-11-08T07:57:51.101Z,100547.78
2022-11-08T08:00:15.178Z,100538.78
2022-11-08T08:02:37.697Z,100535.78
2022-11-08T08:05:00.851Z,100532.75
2022-11-08T08:07:31.748Z,100542.41
2022-11-08T08:09:57.764Z,100527.41
2022-11-08T08:12:21.008Z,100523.53
2022-11-08T08:14:45.612Z,100518.00
2022-11-08T08:17:07.610Z,100522.34
2022-11-08T08:19:31.459Z,100522.00
2022-11-08T08:21:53.447Z,100524.41
2022-11-08T08:24:15.600Z,100531.56
2022-11-08T08:26:38.284Z,100533.59
2022-11-08T08:29:02.054Z,100533.00
2022-11-08T08:32:53.389Z,100533.53
2022-11-08T08:35:19.845Z,100529.69
2022-11-08T08:37:41.896Z,100540.94
2022-11-08T08:40:04.496Z,100541.84
2022-11-08T08:42:26.398Z,100537.66
2022-11-08T08:44:48.447Z,100543.81
2022-11-08T08:47:10.291Z,100548.28
2022-11-08T08:49:32.163Z,100551.91
2022-11-08T08:51:54.159Z,100545.75
2022-11-08T08:54:16.032Z,100555.31
2022-11-08T08:56:37.981Z,100551.81
2022-11-08T09:01:41.915Z,100557.28
2022-11-08T09:04:04.760Z,100548.00
2022-11-08T09:06:26.732Z,100546.19
2022-11-08T09:08:48.736Z,100546.28
2022-11-08T09:11:10.668Z,100544.41
2022-11-08T09:13:32.712Z,100541.34
2022-11-08T09:15:55.523Z,100531.16
2022-11-08T09:18:17.785Z,100531.16
2022-11-08T09:20:39.775Z,100527.66
2022-11-08T09:23:03.262Z,100523.03
2022-11-08T09:25:25.211Z,100527.38
2022-11-08T09:27:47.188Z,100516.75
2022-11-08T09:30:09.968Z,100503.34
2022-11-08T09:32:46.569Z,100500.75
2022-11-08T09:35:14.146Z,100505.63
2022-11-08T09:37:35.985Z,100516.75
2022-11-08T09:39:57.922Z,100523.19
2022-11-08T09:42:38.448Z,100519.25
2022-11-08T09:45:24.733Z,100515.75
2022-11-08T09:47:54.519Z,100504.75
2022-11-08T09:50:26.797Z,100508.81
2022-11-08T09:53:25.878Z,100508.53
2022-11-08T09:55:59.772Z,100504.25
2022-11-08T09:58:30.395Z,100508.25
2022-11-08T10:00:53.574Z,100513.78
2022-11-08T10:03:18.103Z,100510.63
2022-11-08T10:05:50.428Z,100512.69
2022-11-08T10:08:32.049Z,100509.69
2022-11-08T10:11:27.681Z,100519.72
2022-11-08T10:14:02.515Z,100517.91
2022-11-08T10:16:55.329Z,100528.69
2022-11-08T10:19:54.917Z,100530.38
2022-11-08T10:22:37.811Z,100527.38
2022-11-08T10:25:19.358Z,100539.50
2022-11-08T10:27:43.799Z,100518.78
2022-11-08T10:30:27.939Z,100527.00
2022-11-08T10:32:55.229Z,100527.16
2022-11-08T10:35:27.585Z,100522.19
2022-11-08T10:37:54.006Z,100522.69
2022-11-08T10:40:25.458Z,100529.81
2022-11-08T10:42:56.341Z,100531.00
2022-11-08T10:45:18.533Z,100535.72
2022-11-08T10:47:44.307Z,100529.47
2022-11-08T10:50:20.352Z,100539.00
2022-11-08T10:53:01.888Z,100529.88
2022-11-08T10:55:38.621Z,100522.72
2022-11-08T10:58:00.816Z,100533.78
2022-11-08T11:00:22.770Z,100529.03
2022-11-08T11:02:48.748Z,100525.81
2022-11-08T11:05:18.028Z,100534.56
2022-11-08T11:07:40.062Z,100533.38
2022-11-08T11:10:28.498Z,100527.47
2022-11-08T11:13:10.205Z,100531.03
2022-11-08T11:15:48.001Z,100533.03
2022-11-08T11:18:35.812Z,100533.47
2022-11-08T11:21:20.975Z,100531.13
2022-11-08T11:24:08.039Z,100525.22
2022-11-08T11:26:34.461Z,100517.72
2022-11-08T11:29:04.858Z,100514.22
2022-11-08T11:31:26.912Z,100517.00
2022-11-08T11:33:48.834Z,100508.28
2022-11-08T11:36:18.944Z,100500.78
2022-11-08T11:38:58.253Z,100485.69
2022-11-08T11:41:30.482Z,100482.25
2022-11-08T11:44:05.051Z,100474.38
2022-11-08T11:47:02.759Z,100470.50
2022-11-08T11:49:29.857Z,100465.03
2022-11-08T11:51:56.336Z,100473.03
2022-11-08T11:54:18.315Z,100474.25
2022-11-08T11:57:24.805Z,100468.69
2022-11-08T12:00:15.515Z,100464.31
2022-11-08T12:03:20.842Z,100466.00
2022-11-08T12:06:12.097Z,100464.84
2022-11-08T12:08:45.937Z,100459.38
2022-11-08T12:11:36.956Z,100469.34
2022-11-08T12:14:19.096Z,100455.88
2022-11-08T12:16:59.566Z,100455.09
2022-11-08T12:19:36.519Z,100441.56
2022-11-08T12:22:39.520Z,100434.78
2022-11-08T12:25:07.219Z,100431.56
2022-11-08T12:27:55.903Z,100437.13
2022-11-08T12:31:02.715Z,100431.56
2022-11-08T12:34:17.389Z,100428.38
2022-11-08T12:36:43.094Z,100437.13
2022-11-08T12:39:25.066Z,100437.91
2022-11-08T12:42:18.788Z,100443.41
2022-11-08T12:45:21.119Z,100451.31
2022-11-08T12:48:17.285Z,100456.84
2022-11-08T12:51:11.804Z,100448.41
2022-11-08T12:54:00.937Z,100454.34
2022-11-08T12:56:37.994Z,100438.88
2022-11-08T12:59:01.314Z,100443.22
2022-11-08T13:01:24.573Z,100439.28
2022-11-08T13:04:06.223Z,100425.00
2022-11-08T13:06:53.685Z,100429.00
2022-11-08T13:09:46.163Z,100432.97
2022-11-08T13:12:45.723Z,100426.69
2022-11-08T13:15:21.737Z,100421.94
2022-11-08T13:18:06.111Z,100423.22
2022-11-08T13:20:42.175Z,100427.22
2022-11-08T13:23:12.975Z,100422.88
2022-11-08T13:25:37.050Z,100423.38
2022-11-08T13:27:58.945Z,100424.63
2022-11-08T13:30:20.743Z,100425.09
2022-11-08T13:32:54.686Z,100420.34
2022-11-08T13:35:22.594Z,100415.59
2022-11-08T13:38:12.013Z,100402.84
2022-11-08T13:41:03.723Z,100403.69
2022-11-08T13:43:32.892Z,100402.47
2022-11-08T13:45:55.157Z,100400.47
2022-11-08T13:48:37.958Z,100408.81
2022-11-08T13:51:35.663Z,100409.22
2022-11-08T13:54:23.457Z,100420.75
2022-11-08T13:56:50.669Z,100422.78
2022-11-08T13:59:35.964Z,100417.66
2022-11-08T14:01:57.905Z,100414.88
2022-11-08T14:04:29.526Z,100403.44
2022-11-08T14:07:25.442Z,100410.97
2022-11-08T14:10:01.281Z,100415.34
2022-11-08T14:13:01.713Z,100416.13
2022-11-08T14:15:40.689Z,100406.97
2022-11-08T14:18:20.905Z,100419.28
2022-11-08T14:20:48.176Z,100420.84
2022-11-08T14:23:19.727Z,100413.69
2022-11-08T14:25:47.340Z,100414.03
2022-11-08T14:28:28.917Z,100416.44
2022-11-08T14:30:51.677Z,100411.25
2022-11-08T14:33:22.755Z,100406.88
2022-11-08T14:36:02.006Z,100400.13
2022-11-08T14:38:25.886Z,100406.84
2022-11-08T14:40:52.248Z,100404.03
2022-11-08T14:43:14.874Z,100407.19
2022-11-08T14:45:37.061Z,100404.34
2022-11-08T14:48:04.711Z,100404.75
2022-11-08T14:50:33.380Z,100407.88
2022-11-08T14:52:55.697Z,100405.84
2022-11-08T14:55:25.020Z,100410.59
2022-11-08T14:57:47.195Z,100413.72
2022-11-08T15:00:29.747Z,100410.91
2022-11-08T15:03:01.051Z,100414.03
2022-11-08T15:05:54.131Z,100415.59
2022-11-08T15:08:26.044Z,100414.75
2022-11-08T15:11:08.381Z,100420.28
2022-11-08T15:13:40.432Z,100423.44
2022-11-08T15:16:05.793Z,100415.09
2022-11-08T15:18:35.590Z,100421.84
2022-11-08T15:21:11.375Z,100416.72
2022-11-08T15:23:46.882Z,100423.06
2022-11-08T15:26:26.392Z,100411.53
2022-11-08T15:29:17.313Z,100405.19
2022-11-08T15:31:47.479Z,100413.94
2022-11-08T15:34:37.523Z,100407.56
2022-11-08T15:36:59.623Z,100399.19
2022-11-08T15:39:35.938Z,100403.53
2022-11-08T15:42:14.495Z,100405.13
2022-11-08T15:45:05.070Z,100402.75
2022-11-08T15:48:01.699Z,100400.34
2022-11-08T15:50:29.740Z,100396.34
2022-11-08T15:52:55.510Z,100393.53
2022-11-08T15:55:29.656Z,100380.44
2022-11-08T15:57:51.823Z,100384.78
2022-11-08T16:00:22.466Z,100382.75
2022-11-08T16:02:45.180Z,100383.91
2022-11-08T16:05:29.553Z,100374.72
2022-11-08T16:07:52.515Z,100376.72
2022-11-08T16:10:17.581Z,100380.28
2022-11-08T16:12:44.672Z,100381.00
2022-11-08T16:15:21.728Z,100371.06
2022-11-08T16:17:44.185Z,100369.06
2022-11-08T16:20:30.996Z,100371.84
2022-11-08T16:22:54.070Z,100367.41
2022-11-08T16:25:16.135Z,100370.16
2022-11-08T16:27:38.100Z,100369.31
2022-11-08T16:30:00.422Z,100376.78
2022-11-08T16:32:22.326Z,100374.34
2022-11-08T16:34:44.195Z,100375.13
2022-11-08T16:37:09.463Z,100386.16
2022-11-08T16:39:31.417Z,100389.69
2022-11-08T16:41:53.461Z,100384.50
2022-11-08T16:44:15.491Z,100386.88
2022-11-08T16:46:37.856Z,100385.59
2022-11-08T16:49:00.146Z,100389.13
2022-11-08T16:51:25.351Z,100386.69
2022-11-08T16:53:48.964Z,100378.69
2022-11-08T16:56:11.055Z,100400.91
2022-11-08T16:58:33.035Z,100404.41
2022-11-08T17:00:56.522Z,100399.25
2022-11-08T17:03:25.808Z,100397.25
2022-11-08T17:05:48.412Z,100398.03
2022-11-08T17:08:10.254Z,100395.97
2022-11-08T17:10:32.123Z,100398.34
2022-11-08T17:12:55.219Z,100391.19
2022-11-08T17:15:21.835Z,100387.25
2022-11-08T17:17:44.342Z,100393.53
2022-11-08T17:20:09.627Z,100393.13
2022-11-08T17:22:31.469Z,100393.91
2022-11-08T17:24:53.339Z,100391.06
2022-11-08T17:27:19.678Z,100402.94
2022-11-08T17:29:41.687Z,100395.78
2022-11-08T17:32:04.276Z,100389.38
2022-11-08T17:34:26.416Z,100396.84
2022-11-08T17:36:49.080Z,100388.91
2022-11-08T17:39:14.747Z,100389.28
2022-11-08T17:41:36.678Z,100396.34
2022-11-08T17:43:58.946Z,100385.63
2022-11-08T17:46:21.051Z,100384.03
2022-11-08T17:48:43.118Z,100376.16
2022-11-08T17:51:06.022Z,100383.28
2022-11-08T17:53:29.366Z,100376.59
2022-11-08T17:56:00.438Z,100386.84
2022-11-08T17:58:23.775Z,100379.34
2022-11-08T18:00:46.126Z,100377.75
2022-11-08T18:03:13.164Z,100382.53
2022-11-08T18:05:35.526Z,100378.59
2022-11-08T18:07:57.465Z,100389.31
2022-11-08T18:10:19.977Z,100389.69
2022-11-08T18:12:45.967Z,100386.53
2022-11-08T18:15:09.459Z,100389.75
2022-11-08T18:17:31.563Z,100382.22
2022-11-08T18:19:53.603Z,100379.44
2022-11-08T18:22:15.568Z,100385.00
2022-11-08T18:24:39.953Z,100385.06
2022-11-08T18:27:01.935Z,100386.66
2022-11-08T18:29:23.852Z,100390.66
2022-11-08T18:31:45.912Z,100382.31
2022-11-08T18:34:08.195Z,100386.31
2022-11-08T18:36:31.178Z,100392.69
2022-11-08T18:38:53.239Z,100393.06
2022-11-08T18:41:19.711Z,100402.97
2022-11-08T18:43:42.355Z,100391.06
2022-11-08T18:46:06.938Z,100399.78
2022-11-08T18:48:28.970Z,100403.28
2022-11-08T18:50:51.108Z,100389.06
2022-11-08T18:53:13.362Z,100394.97
2022-11-08T18:55:35.928Z,100404.09
2022-11-08T18:57:59.141Z,100402.50
2022-11-08T19:00:21.576Z,100407.69
2022-11-08T19:02:43.753Z,100401.69
2022-11-08T19:05:06.201Z,100403.69
2022-11-08T19:07:28.351Z,100406.88
2022-11-08T19:09:51.445Z,100402.94
2022-11-08T19:12:13.882Z,100406.88
2022-11-08T19:14:44.683Z,100403.69
2022-11-08T19:17:07.197Z,100410.03
2022-11-08T19:19:29.288Z,100406.44
2022-11-08T19:21:51.422Z,100409.22
2022-11-08T19:24:16.739Z,100402.88
2022-11-08T19:26:41.900Z,100404.47
2022-11-08T19:29:05.733Z,100406.03
2022-11-08T19:31:27.828Z,100407.56
2022-11-08T19:33:53.760Z,100398.44
2022-11-08T19:36:21.274Z,100395.28
2022-11-08T19:38:43.765Z,100397.69
2022-11-08T19:41:09.668Z,100400.91
2022-11-08T19:43:35.278Z,100391.41
2022-11-08T19:46:04.467Z,100394.16
2022-11-08T19:48:26.367Z,100391.03
2022-11-08T19:50:48.413Z,100392.19
2022-11-08T19:53:10.454Z,100391.03
2022-11-08T19:55:32.328Z,100398.97
2022-11-08T19:57:54.203Z,100398.66
2022-11-08T20:00:17.865Z,100395.97
2022-11-08T20:02:39.810Z,100394.03
2022-11-08T20:05:02.000Z,100400.00
2022-11-08T20:07:23.869Z,100385.72
2022-11-08T20:09:45.733Z,100393.72
2022-11-08T20:12:08.452Z,100396.19
2022-11-08T20:14:30.327Z,100400.59
2022-11-08T20:16:53.999Z,100402.25
2022-11-08T20:19:16.813Z,100402.69
2022-11-08T20:21:42.029Z,100404.28
2022-11-08T20:24:04.136Z,100407.91
2022-11-08T20:26:27.660Z,100407.91
2022-11-08T20:28:56.473Z,100408.75
2022-11-08T20:31:22.977Z,100410.78
2022-11-08T20:33:48.081Z,100411.63
2022-11-08T20:36:13.665Z,100402.53
2022-11-08T20:38:36.979Z,100405.75
2022-11-08T20:41:02.537Z,100395.84
2022-11-08T20:43:24.378Z,100399.84
2022-11-08T20:45:47.463Z,100414.16
2022-11-08T20:48:09.498Z,100404.66
2022-11-08T20:50:31.732Z,100403.88
2022-11-08T20:52:53.627Z,100409.50
2022-11-08T20:55:15.470Z,100409.50
2022-11-08T20:57:37.293Z,100409.91
2022-11-08T21:00:11.566Z,100410.28
2022-11-08T21:02:35.103Z,100410.28
2022-11-08T21:04:56.981Z,100421.41
2022-11-08T21:08:01.468Z,100416.63
2022-11-08T21:10:26.904Z,100418.63
2022-11-08T21:12:42.783Z,100413.81
2022-11-08T21:15:05.249Z,100414.19
2022-11-08T21:17:27.123Z,100414.97
2022-11-08T21:19:51.026Z,100418.53
2022-11-08T21:22:15.591Z,100420.09
2022-11-08T21:24:37.325Z,100422.00
2022-11-08T21:26:59.202Z,100427.53
2022-11-08T21:29:22.277Z,100429.50
2022-11-08T21:31:44.128Z,100429.09
2022-11-08T21:34:06.059Z,100431.78
2022-11-08T21:36:29.233Z,100439.31
2022-11-08T21:38:51.400Z,100440.09
2022-11-08T21:41:13.402Z,100438.88
2022-11-08T21:43:43.347Z,100444.75
2022-11-08T21:46:25.466Z,100446.66
2022-11-08T21:48:53.853Z,100451.41
2022-11-08T21:51:16.258Z,100452.59
2022-11-08T21:53:46.983Z,100450.56
2022-11-08T21:56:14.519Z,100450.13
2022-11-08T21:58:36.409Z,100449.72
2022-11-08T22:00:58.277Z,100448.88
2022-11-08T22:03:20.233Z,100450.84
2022-11-08T22:05:44.063Z,100454.78
2022-11-08T22:08:05.934Z,100455.16
2022-11-08T22:10:27.966Z,100449.53
2022-11-08T22:12:49.815Z,100444.38
2022-11-08T22:15:11.729Z,100459.38
2022-11-08T22:17:33.727Z,100453.00
2022-11-08T22:19:55.591Z,100454.94
2022-11-08T22:22:17.586Z,100448.16
2022-11-08T22:24:39.858Z,100450.13
2022-11-08T22:27:02.181Z,100447.31
2022-11-08T22:29:24.248Z,100452.81
2022-11-08T22:31:46.489Z,100455.16
2022-11-08T22:34:09.882Z,100458.28
2022-11-08T22:36:32.231Z,100447.16
2022-11-08T22:38:54.564Z,100439.19
2022-11-08T22:41:21.748Z,100451.03
2022-11-08T22:43:44.630Z,100448.63
2022-11-08T22:46:06.612Z,100449.81
2022-11-08T22:48:28.492Z,100443.03
2022-11-08T22:50:50.377Z,100447.34
2022-11-08T22:53:12.253Z,100445.38
2022-11-08T22:55:34.310Z,100445.72
2022-11-08T22:57:56.208Z,100448.13
2022-11-08T23:00:18.892Z,100440.13
2022-11-08T23:02:40.890Z,100451.59
2022-11-08T23:05:02.718Z,100451.16
2022-11-08T23:07:24.556Z,100445.13
2022-11-08T23:09:46.520Z,100446.31
2022-11-08T23:12:29.056Z,100448.66
2022-11-08T23:15:20.075Z,100447.84
2022-11-08T23:17:41.974Z,100445.84
2022-11-08T23:20:22.841Z,100447.41
2022-11-08T23:23:03.290Z,100444.59
2022-11-08T23:25:25.101Z,100439.41
2022-11-08T23:28:05.503Z,100439.41
2022-11-08T23:30:46.008Z,100444.16
2022-11-08T23:33:07.929Z,100444.09
2022-11-08T23:35:29.772Z,100438.53
2022-11-08T23:37:51.616Z,100440.59
2022-11-08T23:40:34.366Z,100441.75
2022-11-08T23:43:34.999Z,100444.88
2022-11-08T23:45:58.524Z,100442.84
2022-11-08T23:48:21.112Z,100446.84
2022-11-08T23:50:51.648Z,100448.03
2022-11-08T23:53:13.575Z,100446.81
2022-11-08T23:55:35.367Z,100448.03
2022-11-08T23:57:57.138Z,100448.03
